Terminal Aerodrome Forecast
Issued by NWS Duluth, MN

Home | Current Version | Previous Version | Text Only | Print | Product List | Glossary On
Versions: 1 2 3 4 5 6 7 8 9 10 11 12 13 14 15 16 17 18 19 20 21 22 23
610
FTUS43 KDLH 210959 AAA
TAFINL
TAF AMD
KINL 210959Z 2110/2206 31014KT P6SM SCT030
     FM211400 33010G15KT P6SM SCT050
     FM220000 34010KT P6SM SKC=

USA.gov is the U.S. government's official web portal to all federal, state and local government web resources and services.